sensor_id;sensor_type;location;lat;lon;timestamp;pressure;altitude;pressure_sealevel;temperature;humidity
49723;BME280;43484;43.608;1.458;2022-08-25T00:00:21;99435.28;;;27.35;83.91
49723;BME280;43484;43.608;1.458;2022-08-25T00:02:48;99432.06;;;27.28;84.02
49723;BME280;43484;43.608;1.458;2022-08-25T00:05:22;99423.28;;;27.29;83.66
49723;BME280;43484;43.608;1.458;2022-08-25T00:07:52;99425.94;;;27.28;83.87
49723;BME280;43484;43.608;1.458;2022-08-25T00:10:19;99422.44;;;27.27;84.98
49723;BME280;43484;43.608;1.458;2022-08-25T00:12:46;99411.13;;;27.25;82.48
49723;BME280;43484;43.608;1.458;2022-08-25T00:15:13;99412.31;;;27.18;85.10
49723;BME280;43484;43.608;1.458;2022-08-25T00:17:39;99411.66;;;27.13;84.51
49723;BME280;43484;43.608;1.458;2022-08-25T00:20:07;99413.03;;;27.22;85.30
49723;BME280;43484;43.608;1.458;2022-08-25T00:22:35;99420.69;;;27.28;83.43
49723;BME280;43484;43.608;1.458;2022-08-25T00:25:02;99422.97;;;27.15;84.64
49723;BME280;43484;43.608;1.458;2022-08-25T00:27:31;99427.28;;;26.97;87.35
49723;BME280;43484;43.608;1.458;2022-08-25T00:29:58;99421.97;;;26.99;87.80
49723;BME280;43484;43.608;1.458;2022-08-25T00:32:25;99417.88;;;26.92;87.85
49723;BME280;43484;43.608;1.458;2022-08-25T00:34:52;99424.25;;;26.86;88.12
49723;BME280;43484;43.608;1.458;2022-08-25T00:37:19;99430.59;;;26.82;90.41
49723;BME280;43484;43.608;1.458;2022-08-25T00:39:46;99429.94;;;26.77;90.74
49723;BME280;43484;43.608;1.458;2022-08-25T00:42:14;99426.81;;;26.88;91.80
49723;BME280;43484;43.608;1.458;2022-08-25T00:44:42;99436.16;;;26.75;90.59
49723;BME280;43484;43.608;1.458;2022-08-25T00:47:09;99433.84;;;26.67;90.81
49723;BME280;43484;43.608;1.458;2022-08-25T00:49:41;99434.78;;;26.65;91.11
49723;BME280;43484;43.608;1.458;2022-08-25T00:52:13;99441.06;;;26.62;91.38
49723;BME280;43484;43.608;1.458;2022-08-25T00:57:18;99438.59;;;26.58;92.80
49723;BME280;43484;43.608;1.458;2022-08-25T01:00:00;99438.34;;;26.64;92.85
49723;BME280;43484;43.608;1.458;2022-08-25T01:02:27;99435.50;;;26.70;93.69
49723;BME280;43484;43.608;1.458;2022-08-25T01:04:53;99437.38;;;26.66;92.19
49723;BME280;43484;43.608;1.458;2022-08-25T01:07:20;99447.13;;;26.63;92.92
49723;BME280;43484;43.608;1.458;2022-08-25T01:09:51;99445.28;;;26.66;93.17
49723;BME280;43484;43.608;1.458;2022-08-25T01:12:19;99458.44;;;26.65;92.71
49723;BME280;43484;43.608;1.458;2022-08-25T01:14:47;99459.94;;;26.72;93.00
49723;BME280;43484;43.608;1.458;2022-08-25T01:17:15;99466.09;;;26.49;93.63
49723;BME280;43484;43.608;1.458;2022-08-25T01:19:43;99466.09;;;26.49;93.63
49723;BME280;43484;43.608;1.458;2022-08-25T01:22:09;99477.72;;;26.65;94.74
49723;BME280;43484;43.608;1.458;2022-08-25T01:24:49;99486.69;;;26.60;93.29
49723;BME280;43484;43.608;1.458;2022-08-25T01:27:18;99485.59;;;26.65;94.68
49723;BME280;43484;43.608;1.458;2022-08-25T01:29:44;99487.34;;;26.65;93.59
49723;BME280;43484;43.608;1.458;2022-08-25T01:32:13;99482.97;;;26.65;91.92
49723;BME280;43484;43.608;1.458;2022-08-25T01:34:43;99490.06;;;26.63;92.47
49723;BME280;43484;43.608;1.458;2022-08-25T01:37:12;99506.16;;;26.56;92.44
49723;BME280;43484;43.608;1.458;2022-08-25T01:39:40;99510.53;;;26.55;93.83
49723;BME280;43484;43.608;1.458;2022-08-25T01:44:39;99519.44;;;26.51;94.37
49723;BME280;43484;43.608;1.458;2022-08-25T01:47:07;99525.84;;;26.44;95.82
49723;BME280;43484;43.608;1.458;2022-08-25T01:49:34;99536.63;;;26.38;97.61
49723;BME280;43484;43.608;1.458;2022-08-25T01:54:38;99542.75;;;26.39;99.01
49723;BME280;43484;43.608;1.458;2022-08-25T01:57:05;99557.22;;;26.49;99.15
49723;BME280;43484;43.608;1.458;2022-08-25T01:59:32;99558.72;;;26.33;99.86
49723;BME280;43484;43.608;1.458;2022-08-25T02:01:59;99567.13;;;26.42;100.00
49723;BME280;43484;43.608;1.458;2022-08-25T02:04:29;99573.59;;;26.34;100.00
49723;BME280;43484;43.608;1.458;2022-08-25T02:07:04;99578.38;;;26.46;100.00
49723;BME280;43484;43.608;1.458;2022-08-25T02:09:33;99569.13;;;26.36;100.00
49723;BME280;43484;43.608;1.458;2022-08-25T02:11:59;99576.50;;;26.48;100.00
49723;BME280;43484;43.608;1.458;2022-08-25T02:14:26;99594.41;;;26.38;100.00
49723;BME280;43484;43.608;1.458;2022-08-25T02:16:54;99593.44;;;26.41;100.00
49723;BME280;43484;43.608;1.458;2022-08-25T02:19:23;99592.19;;;26.28;100.00
49723;BME280;43484;43.608;1.458;2022-08-25T02:21:52;99601.31;;;26.18;100.00
49723;BME280;43484;43.608;1.458;2022-08-25T02:24:19;99606.63;;;26.16;100.00
49723;BME280;43484;43.608;1.458;2022-08-25T02:26:46;99618.88;;;26.17;100.00
49723;BME280;43484;43.608;1.458;2022-08-25T02:29:13;99614.34;;;25.96;100.00
49723;BME280;43484;43.608;1.458;2022-08-25T02:31:39;99614.22;;;25.76;100.00
49723;BME280;43484;43.608;1.458;2022-08-25T02:34:07;99621.34;;;25.97;100.00
49723;BME280;43484;43.608;1.458;2022-08-25T02:36:38;99615.47;;;25.90;100.00
49723;BME280;43484;43.608;1.458;2022-08-25T02:39:07;99619.09;;;26.11;100.00
49723;BME280;43484;43.608;1.458;2022-08-25T02:41:34;99621.59;;;25.89;100.00
49723;BME280;43484;43.608;1.458;2022-08-25T02:44:02;99622.00;;;26.04;100.00
49723;BME280;43484;43.608;1.458;2022-08-25T02:46:29;99619.41;;;25.77;100.00
49723;BME280;43484;43.608;1.458;2022-08-25T02:48:58;99613.47;;;25.97;100.00
49723;BME280;43484;43.608;1.458;2022-08-25T02:51:25;99610.34;;;25.86;100.00
49723;BME280;43484;43.608;1.458;2022-08-25T02:53:59;99616.78;;;25.77;100.00
49723;BME280;43484;43.608;1.458;2022-08-25T02:56:28;99622.16;;;25.74;100.00
49723;BME280;43484;43.608;1.458;2022-08-25T02:58:55;99613.56;;;25.69;100.00
49723;BME280;43484;43.608;1.458;2022-08-25T03:01:22;99622.59;;;25.87;100.00
49723;BME280;43484;43.608;1.458;2022-08-25T03:03:55;99615.72;;;25.83;100.00
49723;BME280;43484;43.608;1.458;2022-08-25T03:06:22;99607.38;;;25.72;100.00
49723;BME280;43484;43.608;1.458;2022-08-25T03:08:50;99613.06;;;25.60;100.00
49723;BME280;43484;43.608;1.458;2022-08-25T03:11:18;99610.41;;;25.34;100.00
49723;BME280;43484;43.608;1.458;2022-08-25T03:13:45;99611.88;;;25.68;100.00
49723;BME280;43484;43.608;1.458;2022-08-25T03:16:13;99611.53;;;25.53;100.00
49723;BME280;43484;43.608;1.458;2022-08-25T03:18:41;99611.16;;;25.88;100.00
49723;BME280;43484;43.608;1.458;2022-08-25T03:21:09;99606.53;;;25.45;100.00
49723;BME280;43484;43.608;1.458;2022-08-25T03:23:38;99601.97;;;25.52;100.00
49723;BME280;43484;43.608;1.458;2022-08-25T03:26:04;99611.25;;;25.60;100.00
49723;BME280;43484;43.608;1.458;2022-08-25T03:28:50;99619.63;;;25.47;100.00
49723;BME280;43484;43.608;1.458;2022-08-25T03:31:17;99609.94;;;25.49;100.00
49723;BME280;43484;43.608;1.458;2022-08-25T03:33:44;99620.69;;;25.66;100.00
49723;BME280;43484;43.608;1.458;2022-08-25T03:36:11;99633.59;;;25.96;100.00
49723;BME280;43484;43.608;1.458;2022-08-25T03:38:40;99622.38;;;25.68;100.00
49723;BME280;43484;43.608;1.458;2022-08-25T03:41:14;99611.06;;;25.42;100.00
49723;BME280;43484;43.608;1.458;2022-08-25T03:43:42;99613.00;;;25.37;100.00
49723;BME280;43484;43.608;1.458;2022-08-25T03:46:16;99615.97;;;24.99;100.00
49723;BME280;43484;43.608;1.458;2022-08-25T03:48:44;99605.03;;;24.86;100.00
49723;BME280;43484;43.608;1.458;2022-08-25T03:51:11;99574.53;;;24.56;100.00
49723;BME280;43484;43.608;1.458;2022-08-25T03:53:39;99584.50;;;24.72;100.00
49723;BME280;43484;43.608;1.458;2022-08-25T03:56:05;99590.56;;;24.74;100.00
49723;BME280;43484;43.608;1.458;2022-08-25T03:58:32;99605.19;;;25.08;100.00
49723;BME280;43484;43.608;1.458;2022-08-25T04:00:59;99601.72;;;24.81;100.00
49723;BME280;43484;43.608;1.458;2022-08-25T04:03:26;99597.75;;;24.39;100.00
49723;BME280;43484;43.608;1.458;2022-08-25T04:05:52;99561.47;;;24.27;100.00
49723;BME280;43484;43.608;1.458;2022-08-25T04:08:21;99539.91;;;24.19;100.00
49723;BME280;43484;43.608;1.458;2022-08-25T04:10:48;99544.47;;;24.12;100.00
49723;BME280;43484;43.608;1.458;2022-08-25T04:13:14;99565.16;;;24.21;100.00
49723;BME280;43484;43.608;1.458;2022-08-25T04:15:42;99582.72;;;24.45;100.00
49723;BME280;43484;43.608;1.458;2022-08-25T04:18:09;99596.38;;;24.55;100.00
49723;BME280;43484;43.608;1.458;2022-08-25T04:20:40;99615.03;;;24.73;100.00
49723;BME280;43484;43.608;1.458;2022-08-25T04:23:12;99584.00;;;24.32;100.00
49723;BME280;43484;43.608;1.458;2022-08-25T04:25:39;99593.38;;;24.39;100.00
49723;BME280;43484;43.608;1.458;2022-08-25T04:28:08;99599.69;;;24.32;100.00
49723;BME280;43484;43.608;1.458;2022-08-25T04:30:35;99595.72;;;24.48;100.00
49723;BME280;43484;43.608;1.458;2022-08-25T04:33:06;99617.81;;;24.95;100.00
49723;BME280;43484;43.608;1.458;2022-08-25T04:35:33;99619.81;;;24.59;100.00
49723;BME280;43484;43.608;1.458;2022-08-25T04:38:00;99621.19;;;24.72;100.00
49723;BME280;43484;43.608;1.458;2022-08-25T04:40:28;99611.09;;;24.59;100.00
49723;BME280;43484;43.608;1.458;2022-08-25T04:42:54;99584.66;;;24.11;100.00
49723;BME280;43484;43.608;1.458;2022-08-25T04:45:21;99548.44;;;23.95;100.00
49723;BME280;43484;43.608;1.458;2022-08-25T04:47:48;99556.63;;;24.13;100.00
49723;BME280;43484;43.608;1.458;2022-08-25T04:50:20;99564.06;;;24.27;100.00
49723;BME280;43484;43.608;1.458;2022-08-25T04:52:46;99595.53;;;24.54;100.00
49723;BME280;43484;43.608;1.458;2022-08-25T04:55:15;99612.28;;;24.78;100.00
49723;BME280;43484;43.608;1.458;2022-08-25T04:57:43;99627.59;;;24.62;100.00
49723;BME280;43484;43.608;1.458;2022-08-25T05:00:10;99646.28;;;25.07;100.00
49723;BME280;43484;43.608;1.458;2022-08-25T05:02:37;99670.66;;;25.38;100.00
49723;BME280;43484;43.608;1.458;2022-08-25T05:05:04;99679.16;;;25.45;100.00
49723;BME280;43484;43.608;1.458;2022-08-25T05:07:32;99658.50;;;24.81;100.00
49723;BME280;43484;43.608;1.458;2022-08-25T05:09:58;99661.34;;;24.73;100.00
49723;BME280;43484;43.608;1.458;2022-08-25T05:12:25;99664.09;;;24.68;100.00
49723;BME280;43484;43.608;1.458;2022-08-25T05:14:54;99658.94;;;24.36;100.00
49723;BME280;43484;43.608;1.458;2022-08-25T05:17:20;99636.47;;;24.29;100.00
49723;BME280;43484;43.608;1.458;2022-08-25T05:19:47;99642.56;;;24.28;100.00
49723;BME280;43484;43.608;1.458;2022-08-25T05:22:14;99653.66;;;24.38;100.00
49723;BME280;43484;43.608;1.458;2022-08-25T05:24:44;99642.91;;;24.18;100.00
49723;BME280;43484;43.608;1.458;2022-08-25T05:27:10;99642.53;;;24.30;100.00
49723;BME280;43484;43.608;1.458;2022-08-25T05:29:37;99657.06;;;24.40;100.00
49723;BME280;43484;43.608;1.458;2022-08-25T05:32:04;99645.16;;;24.30;100.00
49723;BME280;43484;43.608;1.458;2022-08-25T05:34:30;99668.34;;;24.72;100.00
49723;BME280;43484;43.608;1.458;2022-08-25T05:36:57;99704.53;;;25.17;100.00
49723;BME280;43484;43.608;1.458;2022-08-25T05:39:25;99712.19;;;25.23;100.00
49723;BME280;43484;43.608;1.458;2022-08-25T05:41:52;99705.50;;;24.85;100.00
49723;BME280;43484;43.608;1.458;2022-08-25T05:44:19;99697.66;;;25.13;100.00
49723;BME280;43484;43.608;1.458;2022-08-25T05:46:47;99680.22;;;24.84;100.00
49723;BME280;43484;43.608;1.458;2022-08-25T05:49:13;99675.09;;;24.81;100.00
49723;BME280;43484;43.608;1.458;2022-08-25T05:51:40;99696.00;;;25.38;100.00
49723;BME280;43484;43.608;1.458;2022-08-25T05:54:07;99704.06;;;25.32;100.00
49723;BME280;43484;43.608;1.458;2022-08-25T05:56:33;99715.31;;;25.35;100.00
49723;BME280;43484;43.608;1.458;2022-08-25T05:59:00;99725.97;;;25.29;100.00
49723;BME280;43484;43.608;1.458;2022-08-25T06:01:32;99726.72;;;25.07;100.00
49723;BME280;43484;43.608;1.458;2022-08-25T06:04:17;99708.22;;;24.53;100.00
49723;BME280;43484;43.608;1.458;2022-08-25T06:06:45;99726.16;;;24.68;100.00
49723;BME280;43484;43.608;1.458;2022-08-25T06:09:12;99713.53;;;24.19;100.00
49723;BME280;43484;43.608;1.458;2022-08-25T06:11:40;99650.81;;;23.84;100.00
49723;BME280;43484;43.608;1.458;2022-08-25T06:14:09;99656.59;;;23.95;100.00
49723;BME280;43484;43.608;1.458;2022-08-25T06:16:36;99672.25;;;23.97;100.00
49723;BME280;43484;43.608;1.458;2022-08-25T06:19:05;99646.22;;;23.92;100.00
49723;BME280;43484;43.608;1.458;2022-08-25T06:21:32;99664.34;;;24.30;100.00
49723;BME280;43484;43.608;1.458;2022-08-25T06:24:00;99660.22;;;23.90;100.00
49723;BME280;43484;43.608;1.458;2022-08-25T06:26:26;99675.25;;;24.15;100.00
49723;BME280;43484;43.608;1.458;2022-08-25T06:28:53;99682.22;;;24.16;100.00
49723;BME280;43484;43.608;1.458;2022-08-25T06:31:20;99699.63;;;24.48;100.00
49723;BME280;43484;43.608;1.458;2022-08-25T06:33:48;99701.03;;;24.29;100.00
49723;BME280;43484;43.608;1.458;2022-08-25T06:36:15;99698.66;;;24.50;100.00
49723;BME280;43484;43.608;1.458;2022-08-25T06:38:42;99717.38;;;24.67;100.00
49723;BME280;43484;43.608;1.458;2022-08-25T06:41:09;99727.44;;;24.83;100.00
49723;BME280;43484;43.608;1.458;2022-08-25T06:43:39;99730.59;;;24.94;100.00
49723;BME280;43484;43.608;1.458;2022-08-25T06:46:18;99725.75;;;25.09;100.00
49723;BME280;43484;43.608;1.458;2022-08-25T06:48:45;99733.66;;;25.08;100.00
49723;BME280;43484;43.608;1.458;2022-08-25T06:51:14;99746.38;;;25.20;100.00
49723;BME280;43484;43.608;1.458;2022-08-25T06:53:42;99746.38;;;25.20;100.00
49723;BME280;43484;43.608;1.458;2022-08-25T06:56:10;99735.91;;;25.47;100.00
49723;BME280;43484;43.608;1.458;2022-08-25T06:58:37;99721.59;;;25.30;100.00
49723;BME280;43484;43.608;1.458;2022-08-25T07:01:08;99714.06;;;25.19;100.00
49723;BME280;43484;43.608;1.458;2022-08-25T07:03:45;99718.44;;;25.19;100.00
49723;BME280;43484;43.608;1.458;2022-08-25T07:06:14;99717.16;;;25.32;100.00
49723;BME280;43484;43.608;1.458;2022-08-25T07:08:44;99723.16;;;25.35;100.00
49723;BME280;43484;43.608;1.458;2022-08-25T07:11:13;99712.94;;;25.54;100.00
49723;BME280;43484;43.608;1.458;2022-08-25T07:13:43;99725.56;;;25.69;100.00
49723;BME280;43484;43.608;1.458;2022-08-25T07:16:11;99712.19;;;25.50;100.00
49723;BME280;43484;43.608;1.458;2022-08-25T07:18:38;99693.44;;;25.36;100.00
49723;BME280;43484;43.608;1.458;2022-08-25T07:21:06;99679.06;;;25.48;100.00
49723;BME280;43484;43.608;1.458;2022-08-25T07:23:35;99705.00;;;25.81;100.00
49723;BME280;43484;43.608;1.458;2022-08-25T07:26:13;99690.56;;;25.70;100.00
49723;BME280;43484;43.608;1.458;2022-08-25T07:29:25;99678.53;;;25.63;100.00
49723;BME280;43484;43.608;1.458;2022-08-25T07:32:02;99640.13;;;25.34;100.00
49723;BME280;43484;43.608;1.458;2022-08-25T07:34:30;99641.28;;;25.53;100.00
49723;BME280;43484;43.608;1.458;2022-08-25T07:37:19;56282.84;;;-139.91;100.00
49723;BME280;43484;43.608;1.458;2022-08-25T07:40:06;56282.84;;;-139.91;100.00
49723;BME280;43484;43.608;1.458;2022-08-25T07:42:33;99641.28;;;25.53;100.00
49723;BME280;43484;43.608;1.458;2022-08-25T07:45:04;99641.28;;;25.53;100.00
49723;BME280;43484;43.608;1.458;2022-08-25T07:47:32;99641.28;;;25.53;100.00
49723;BME280;43484;43.608;1.458;2022-08-25T07:50:00;99641.28;;;25.53;100.00
49723;BME280;43484;43.608;1.458;2022-08-25T07:52:26;99641.28;;;25.53;100.00
49723;BME280;43484;43.608;1.458;2022-08-25T07:54:53;99641.28;;;25.53;100.00
49723;BME280;43484;43.608;1.458;2022-08-25T07:57:20;99641.28;;;25.53;100.00
49723;BME280;43484;43.608;1.458;2022-08-25T07:59:49;99641.28;;;25.53;100.00
49723;BME280;43484;43.608;1.458;2022-08-25T08:02:16;99641.28;;;25.53;100.00
49723;BME280;43484;43.608;1.458;2022-08-25T08:04:49;99641.28;;;25.53;100.00
49723;BME280;43484;43.608;1.458;2022-08-25T08:07:25;99641.28;;;25.53;100.00
49723;BME280;43484;43.608;1.458;2022-08-25T08:10:11;99641.28;;;25.53;100.00
49723;BME280;43484;43.608;1.458;2022-08-25T08:12:57;99641.28;;;25.53;100.00
49723;BME280;43484;43.608;1.458;2022-08-25T08:15:24;99641.28;;;25.53;100.00
49723;BME280;43484;43.608;1.458;2022-08-25T08:17:56;99641.28;;;25.53;100.00
49723;BME280;43484;43.608;1.458;2022-08-25T08:20:23;99641.28;;;25.53;100.00
49723;BME280;43484;43.608;1.458;2022-08-25T08:22:50;99641.28;;;25.53;100.00
49723;BME280;43484;43.608;1.458;2022-08-25T08:25:17;99641.28;;;25.53;100.00
49723;BME280;43484;43.608;1.458;2022-08-25T08:27:52;99641.28;;;25.53;100.00
49723;BME280;43484;43.608;1.458;2022-08-25T08:30:20;99641.28;;;25.53;100.00
49723;BME280;43484;43.608;1.458;2022-08-25T08:32:51;99641.28;;;25.53;100.00
49723;BME280;43484;43.608;1.458;2022-08-25T08:35:35;99641.28;;;25.53;100.00
49723;BME280;43484;43.608;1.458;2022-08-25T08:38:02;99641.28;;;25.53;100.00
49723;BME280;43484;43.608;1.458;2022-08-25T08:40:46;99641.28;;;25.53;100.00
49723;BME280;43484;43.608;1.458;2022-08-25T08:43:41;99641.28;;;25.53;100.00
49723;BME280;43484;43.608;1.458;2022-08-25T08:46:09;99641.28;;;25.53;100.00
49723;BME280;43484;43.608;1.458;2022-08-25T08:49:00;99641.28;;;25.53;100.00
49723;BME280;43484;43.608;1.458;2022-08-25T08:51:37;99641.28;;;25.53;100.00
49723;BME280;43484;43.608;1.458;2022-08-25T08:54:22;99641.28;;;25.53;100.00
49723;BME280;43484;43.608;1.458;2022-08-25T08:57:01;99641.28;;;25.53;100.00
49723;BME280;43484;43.608;1.458;2022-08-25T08:59:39;99641.28;;;25.53;100.00
49723;BME280;43484;43.608;1.458;2022-08-25T09:02:17;99641.28;;;25.53;100.00
49723;BME280;43484;43.608;1.458;2022-08-25T09:05:12;99641.28;;;25.53;100.00
49723;BME280;43484;43.608;1.458;2022-08-25T09:08:08;99641.28;;;25.53;100.00
49723;BME280;43484;43.608;1.458;2022-08-25T09:11:00;99641.28;;;25.53;100.00
49723;BME280;43484;43.608;1.458;2022-08-25T09:16:19;99641.28;;;25.53;100.00
49723;BME280;43484;43.608;1.458;2022-08-25T09:32:34;99641.28;;;25.53;100.00
49723;BME280;43484;43.608;1.458;2022-08-25T09:35:02;99641.28;;;25.53;100.00
49723;BME280;43484;43.608;1.458;2022-08-25T09:37:29;99641.28;;;25.53;100.00
49723;BME280;43484;43.608;1.458;2022-08-25T09:39:57;99641.28;;;25.53;100.00
49723;BME280;43484;43.608;1.458;2022-08-25T09:42:48;99641.28;;;25.53;100.00
49723;BME280;43484;43.608;1.458;2022-08-25T09:45:42;99641.28;;;25.53;100.00
49723;BME280;43484;43.608;1.458;2022-08-25T09:51:01;99641.28;;;25.53;100.00
49723;BME280;43484;43.608;1.458;2022-08-25T09:53:43;99641.28;;;25.53;100.00
49723;BME280;43484;43.608;1.458;2022-08-25T09:56:18;99641.28;;;25.53;100.00
49723;BME280;43484;43.608;1.458;2022-08-25T09:58:47;99641.28;;;25.53;100.00
49723;BME280;43484;43.608;1.458;2022-08-25T10:01:18;99641.28;;;25.53;100.00
49723;BME280;43484;43.608;1.458;2022-08-25T10:04:03;99641.28;;;25.53;100.00
49723;BME280;43484;43.608;1.458;2022-08-25T10:06:43;99641.28;;;25.53;100.00
49723;BME280;43484;43.608;1.458;2022-08-25T10:09:21;99641.28;;;25.53;100.00
49723;BME280;43484;43.608;1.458;2022-08-25T10:11:49;99641.28;;;25.53;100.00
49723;BME280;43484;43.608;1.458;2022-08-25T10:14:33;99641.28;;;25.53;100.00
49723;BME280;43484;43.608;1.458;2022-08-25T10:20:11;56282.84;;;-139.91;100.00
49723;BME280;43484;43.608;1.458;2022-08-25T10:22:40;56282.84;;;-139.91;100.00
49723;BME280;43484;43.608;1.458;2022-08-25T10:25:12;56282.84;;;-139.91;100.00
49723;BME280;43484;43.608;1.458;2022-08-25T10:27:52;56282.84;;;-139.91;100.00
49723;BME280;43484;43.608;1.458;2022-08-25T10:30:29;56282.84;;;-139.91;100.00
49723;BME280;43484;43.608;1.458;2022-08-25T10:35:54;56282.84;;;-139.91;100.00
49723;BME280;43484;43.608;1.458;2022-08-25T10:38:31;56282.84;;;-139.91;100.00
49723;BME280;43484;43.608;1.458;2022-08-25T10:43:43;56282.84;;;-139.91;100.00
49723;BME280;43484;43.608;1.458;2022-08-25T10:46:31;56282.84;;;-139.91;100.00
49723;BME280;43484;43.608;1.458;2022-08-25T10:49:12;56282.84;;;-139.91;100.00
49723;BME280;43484;43.608;1.458;2022-08-25T10:51:57;56282.84;;;-139.91;100.00
49723;BME280;43484;43.608;1.458;2022-08-25T10:59:59;56282.84;;;-139.91;100.00
49723;BME280;43484;43.608;1.458;2022-08-25T11:02:50;56282.84;;;-139.91;100.00
49723;BME280;43484;43.608;1.458;2022-08-25T11:08:22;56282.84;;;-139.91;100.00
49723;BME280;43484;43.608;1.458;2022-08-25T11:11:04;56282.84;;;-139.91;100.00
49723;BME280;43484;43.608;1.458;2022-08-25T11:14:10;56282.84;;;-139.91;100.00
49723;BME280;43484;43.608;1.458;2022-08-25T11:16:43;56282.84;;;-139.91;100.00
49723;BME280;43484;43.608;1.458;2022-08-25T11:19:36;56282.84;;;-139.91;100.00
49723;BME280;43484;43.608;1.458;2022-08-25T11:22:29;56282.84;;;-139.91;100.00
49723;BME280;43484;43.608;1.458;2022-08-25T11:25:06;56282.84;;;-139.91;100.00
49723;BME280;43484;43.608;1.458;2022-08-25T11:27:48;56282.84;;;-139.91;100.00
49723;BME280;43484;43.608;1.458;2022-08-25T11:30:18;56282.84;;;-139.91;100.00
49723;BME280;43484;43.608;1.458;2022-08-25T11:32:49;56282.84;;;-139.91;100.00
49723;BME280;43484;43.608;1.458;2022-08-25T11:35:42;56282.84;;;-139.91;100.00
49723;BME280;43484;43.608;1.458;2022-08-25T11:44:03;56282.84;;;-139.91;100.00
49723;BME280;43484;43.608;1.458;2022-08-25T11:46:47;56282.84;;;-139.91;100.00
49723;BME280;43484;43.608;1.458;2022-08-25T12:00:47;56282.84;;;-139.91;100.00
49723;BME280;43484;43.608;1.458;2022-08-25T12:09:17;56282.84;;;-139.91;100.00
49723;BME280;43484;43.608;1.458;2022-08-25T12:11:50;56282.84;;;-139.91;100.00
49723;BME280;43484;43.608;1.458;2022-08-25T12:24:52;56282.84;;;-139.91;100.00
49723;BME280;43484;43.608;1.458;2022-08-25T12:30:27;56282.84;;;-139.91;100.00
49723;BME280;43484;43.608;1.458;2022-08-25T12:36:02;56282.84;;;-139.91;100.00
49723;BME280;43484;43.608;1.458;2022-08-25T12:38:44;56282.84;;;-139.91;100.00
49723;BME280;43484;43.608;1.458;2022-08-25T12:41:23;56282.84;;;-139.91;100.00
49723;BME280;43484;43.608;1.458;2022-08-25T12:43:53;56282.84;;;-139.91;100.00
49723;BME280;43484;43.608;1.458;2022-08-25T12:46:37;56282.84;;;-139.91;100.00
49723;BME280;43484;43.608;1.458;2022-08-25T12:51:51;56282.84;;;-139.91;100.00
49723;BME280;43484;43.608;1.458;2022-08-25T13:00:24;56282.84;;;-139.91;100.00
49723;BME280;43484;43.608;1.458;2022-08-25T13:12:12;56282.84;;;-139.91;100.00
49723;BME280;43484;43.608;1.458;2022-08-25T13:14:42;56282.84;;;-139.91;100.00
49723;BME280;43484;43.608;1.458;2022-08-25T13:17:10;56282.84;;;-139.91;100.00
49723;BME280;43484;43.608;1.458;2022-08-25T13:19:37;56282.84;;;-139.91;100.00
49723;BME280;43484;43.608;1.458;2022-08-25T13:22:14;56282.84;;;-139.91;100.00
49723;BME280;43484;43.608;1.458;2022-08-25T13:24:44;56282.84;;;-139.91;100.00
49723;BME280;43484;43.608;1.458;2022-08-25T13:27:26;56282.84;;;-139.91;100.00
49723;BME280;43484;43.608;1.458;2022-08-25T13:29:57;56282.84;;;-139.91;100.00
49723;BME280;43484;43.608;1.458;2022-08-25T13:32:34;56282.84;;;-139.91;100.00
49723;BME280;43484;43.608;1.458;2022-08-25T13:35:21;56282.84;;;-139.91;100.00
49723;BME280;43484;43.608;1.458;2022-08-25T13:37:51;56282.84;;;-139.91;100.00
49723;BME280;43484;43.608;1.458;2022-08-25T13:42:57;56282.84;;;-139.91;100.00
49723;BME280;43484;43.608;1.458;2022-08-25T13:45:28;56282.84;;;-139.91;100.00
49723;BME280;43484;43.608;1.458;2022-08-25T13:47:57;56282.84;;;-139.91;100.00
49723;BME280;43484;43.608;1.458;2022-08-25T13:52:54;56282.84;;;-139.91;100.00
49723;BME280;43484;43.608;1.458;2022-08-25T13:55:24;56282.84;;;-139.91;100.00
49723;BME280;43484;43.608;1.458;2022-08-25T13:57:55;56282.84;;;-139.91;100.00
49723;BME280;43484;43.608;1.458;2022-08-25T14:01:11;56282.84;;;-139.91;100.00
49723;BME280;43484;43.608;1.458;2022-08-25T14:04:20;56282.84;;;-139.91;100.00
49723;BME280;43484;43.608;1.458;2022-08-25T14:06:47;56282.84;;;-139.91;100.00
49723;BME280;43484;43.608;1.458;2022-08-25T14:09:16;56282.84;;;-139.91;100.00
49723;BME280;43484;43.608;1.458;2022-08-25T14:11:56;56282.84;;;-139.91;100.00
49723;BME280;43484;43.608;1.458;2022-08-25T14:16:57;56282.84;;;-139.91;100.00
49723;BME280;43484;43.608;1.458;2022-08-25T14:19:28;56282.84;;;-139.91;100.00
49723;BME280;43484;43.608;1.458;2022-08-25T14:21:56;56282.84;;;-139.91;100.00
49723;BME280;43484;43.608;1.458;2022-08-25T14:24:33;56282.84;;;-139.91;100.00
49723;BME280;43484;43.608;1.458;2022-08-25T14:27:06;56282.84;;;-139.91;100.00
49723;BME280;43484;43.608;1.458;2022-08-25T14:29:48;99740.34;;;28.61;100.00
49723;BME280;43484;43.608;1.458;2022-08-25T14:32:18;99733.34;;;28.79;100.00
49723;BME280;43484;43.608;1.458;2022-08-25T14:34:45;99731.91;;;28.53;100.00
49723;BME280;43484;43.608;1.458;2022-08-25T14:37:15;99734.78;;;28.47;100.00
49723;BME280;43484;43.608;1.458;2022-08-25T14:39:43;99736.69;;;28.64;100.00
49723;BME280;43484;43.608;1.458;2022-08-25T14:42:12;99732.38;;;28.22;100.00
49723;BME280;43484;43.608;1.458;2022-08-25T14:44:38;99725.47;;;28.40;100.00
49723;BME280;43484;43.608;1.458;2022-08-25T14:47:06;99726.91;;;28.27;100.00
49723;BME280;43484;43.608;1.458;2022-08-25T14:49:37;99712.13;;;28.43;100.00
49723;BME280;43484;43.608;1.458;2022-08-25T14:52:17;99711.56;;;28.57;100.00
49723;BME280;43484;43.608;1.458;2022-08-25T14:54:47;99708.78;;;28.60;100.00
49723;BME280;43484;43.608;1.458;2022-08-25T14:57:14;99713.81;;;28.83;100.00
49723;BME280;43484;43.608;1.458;2022-08-25T14:59:41;99701.53;;;29.19;100.00